TGW835 ROAH-WSSS
Flight info
| Callsign | TGW835 |
|---|---|
| Flight time | N/A |
| Altitude | 34000 |
| Route | OLVAL V91 MJC G581 TULTO Q13 KABAM N892 |
| Aircraft | A320/M-SDFGHIRWYZ/LB1 |
Departure
| Time | 2026-04-29 10:32 |
|---|---|
| Airport | Naha International Airport (ROAH) |
Arrival
| Time | N/A |
|---|---|
| Airport | Singapore Changi Airport (WSSS) |
| Time | Latitude | Longitude | Altitude | Speed | Heading |
|---|---|---|---|---|---|
| 2026-04-29 10:09 | 26.21152 | 127.64980 | 22 ft | 0 kts | 88° |
| 2026-04-29 10:12 | 26.21152 | 127.64979 | 21 ft | 0 kts | 88° |
| 2026-04-29 10:13 | 26.21152 | 127.64980 | 21 ft | 0 kts | 88° |
| 2026-04-29 10:13 | 26.21152 | 127.64979 | 21 ft | 0 kts | 88° |
| 2026-04-29 10:23 | 26.21151 | 127.64956 | 21 ft | 3 kts | 87° |
| 2026-04-29 10:23 | 26.21150 | 127.64930 | 21 ft | 3 kts | 87° |
| 2026-04-29 10:23 | 26.21150 | 127.64908 | 21 ft | 3 kts | 110° |
| 2026-04-29 10:23 | 26.21162 | 127.64889 | 22 ft | 3 kts | 148° |
| 2026-04-29 10:24 | 26.21184 | 127.64878 | 23 ft | 3 kts | 168° |
| 2026-04-29 10:24 | 26.21206 | 127.64875 | 23 ft | 3 kts | 177° |
| 2026-04-29 10:24 | 26.21229 | 127.64873 | 22 ft | 3 kts | 176° |
| 2026-04-29 10:24 | 26.21253 | 127.64871 | 22 ft | 3 kts | 172° |
| 2026-04-29 10:25 | 26.21276 | 127.64866 | 21 ft | 3 kts | 160° |
| 2026-04-29 10:25 | 26.21290 | 127.64859 | 23 ft | 0 kts | 147° |
| 2026-04-29 10:28 | 26.21285 | 127.64862 | 22 ft | 3 kts | 148° |
| 2026-04-29 10:28 | 26.21257 | 127.64872 | 22 ft | 5 kts | 171° |
| 2026-04-29 10:28 | 26.21211 | 127.64874 | 22 ft | 8 kts | 178° |
| 2026-04-29 10:29 | 26.21153 | 127.64877 | 21 ft | 9 kts | 177° |
| 2026-04-29 10:29 | 26.21083 | 127.64882 | 20 ft | 11 kts | 177° |
| 2026-04-29 10:29 | 26.21003 | 127.64885 | 20 ft | 11 kts | 178° |
| 2026-04-29 10:29 | 26.20939 | 127.64879 | 20 ft | 10 kts | 206° |
| 2026-04-29 10:30 | 26.20914 | 127.64814 | 19 ft | 10 kts | 265° |
| 2026-04-29 10:30 | 26.20907 | 127.64733 | 17 ft | 12 kts | 264° |
| 2026-04-29 10:30 | 26.20901 | 127.64631 | 16 ft | 14 kts | 269° |
| 2026-04-29 10:30 | 26.20898 | 127.64550 | 17 ft | 9 kts | 267° |
| 2026-04-29 10:31 | 26.20875 | 127.64525 | 18 ft | 5 kts | 176° |
| 2026-04-29 10:31 | 26.20867 | 127.64526 | 18 ft | 0 kts | 175° |
| 2026-04-29 10:31 | 26.20814 | 127.64528 | 18 ft | 31 kts | 178° |
| 2026-04-29 10:31 | 26.20362 | 127.64550 | 19 ft | 96 kts | 177° |
| 2026-04-29 10:32 | 26.19506 | 127.64592 | 15 ft | 147 kts | 178° |
| 2026-04-29 10:32 | 26.18384 | 127.64650 | 319 ft | 162 kts | 175° |
| 2026-04-29 10:32 | 26.17275 | 127.64697 | 955 ft | 159 kts | 173° |
| 2026-04-29 10:32 | 26.16186 | 127.64764 | 1571 ft | 158 kts | 175° |
| 2026-04-29 10:33 | 26.15066 | 127.64836 | 1916 ft | 170 kts | 175° |
| 2026-04-29 10:33 | 26.13777 | 127.64920 | 2117 ft | 202 kts | 176° |
| 2026-04-29 10:33 | 26.12291 | 127.64923 | 2617 ft | 226 kts | 193° |